Time;durP1;ratioP1;P1;durP2;ratioP2;P2;SDS_P1;SDS_P2;PMS_P1;PMS_P2;Temp;Humidity;BMP_temperature;BMP_pressure;BME280_temperature;BME280_humidity;BME280_pressure;Samples;Min_cycle;Max_cycle;Signal;HPM_P1;HPM_P2
2023/11/14 00:03:13;;;;;;;24.00;21.40;;;;;;;6.03;100.00;98661.90;112938;1239;22406;-79
2023/11/14 00:05:59;;;;;;;20.90;18.70;;;;;;;6.03;100.00;98691.42;112944;1239;22074;-78
2023/11/14 00:09:01;;;;;;;;;;;;;;;;;;;;;
2023/11/14 00:12:09;;;;;;;21.10;17.70;;;;;;;6.14;100.00;98708.90;112971;1239;21974;-79
2023/11/14 00:14:59;;;;;;;20.00;17.60;;;;;;;6.17;100.00;98707.90;112275;1243;21979;-78
2023/11/14 00:17:34;;;;;;;18.20;16.40;;;;;;;6.24;100.00;98707.05;111918;1247;21978;-79
2023/11/14 00:20:39;;;;;;;17.80;15.90;;;;;;;6.29;100.00;98708.22;111962;1245;22647;-78
2023/11/14 00:24:44;;;;;;;20.00;16.10;;;;;;;6.33;100.00;98698.52;112020;1245;24280;-80
2023/11/14 00:27:24;;;;;;;17.40;15.70;;;;;;;6.39;100.00;98694.06;112043;1245;22868;-80
2023/11/14 00:30:44;;;;;;;14.20;12.80;;;;;;;6.47;100.00;98690.58;112020;1245;23007;-79
2023/11/14 00:33:34;;;;;;;16.50;14.70;;;;;;;6.56;100.00;98695.54;112346;1239;21952;-77
2023/11/14 00:36:16;;;;;;;15.50;13.90;;;;;;;6.64;100.00;98693.25;113035;1233;22022;-78
2023/11/14 00:39:17;;;;;;;;;;;;;;;;;;;;;
2023/11/14 00:41:59;;;;;;;13.20;11.70;;;;;;;6.76;100.00;98684.70;113255;1233;23075;-80
2023/11/14 00:44:42;;;;;;;11.80;10.80;;;;;;;6.84;100.00;98696.79;113349;1233;21985;-77
2023/11/14 00:47:25;;;;;;;11.00;9.50;;;;;;;6.92;100.00;98701.05;112806;1241;22128;-80
2023/11/14 00:50:31;;;;;;;11.90;9.00;;;;;;;7.00;100.00;98697.38;112641;1240;21952;-81
2023/11/14 00:53:59;;;;;;;10.80;9.30;;;;;;;7.06;100.00;98694.51;112702;1241;22279;-79
2023/11/14 00:56:58;;;;;;;11.20;10.10;;;;;;;7.14;100.00;98690.98;112449;1242;23713;-78
2023/11/14 00:59:33;;;;;;;12.80;11.50;;;;;;;7.23;100.00;98690.36;112532;1242;21953;-78
2023/11/14 01:02:27;;;;;;;12.30;11.20;;;;;;;7.30;100.00;98690.52;111890;1247;22097;-79
2023/11/14 01:04:57;;;;;;;13.30;11.80;;;;;;;7.37;100.00;98690.15;111936;1243;21971;-81
2023/11/14 01:07:49;;;;;;;12.00;10.90;;;;;;;7.44;100.00;98691.71;112213;1243;23622;-80
2023/11/14 01:10:26;;;;;;;10.30;9.30;;;;;;;7.49;100.00;98695.41;111826;1248;22042;-79
2023/11/14 01:13:14;;;;;;;10.30;9.30;;;;;;;7.54;100.00;98698.78;111758;1248;23093;-78
2023/11/14 01:16:05;;;;;;;8.00;7.20;;;;;;;7.60;100.00;98699.52;112284;1243;21985;-81
2023/11/14 01:19:42;;;;;;;;;;;;;;;;;;;;;
2023/11/14 01:22:33;;;;;;;8.40;7.40;;;;;;;7.73;100.00;98702.30;111394;1251;21972;-80
2023/11/14 01:25:34;;;;;;;7.00;6.30;;;;;;;7.82;100.00;98700.84;111463;1251;22277;-80
2023/11/14 01:29:03;;;;;;;8.10;7.20;;;;;;;7.90;100.00;98702.66;111794;1246;23629;-79
2023/11/14 01:31:42;;;;;;;7.30;6.60;;;;;;;7.96;100.00;98701.47;111904;1246;21955;-79
2023/11/14 01:34:36;;;;;;;8.40;7.40;;;;;;;8.02;100.00;98699.59;112027;1246;23028;-79
2023/11/14 01:37:35;;;;;;;7.80;7.00;;;;;;;8.08;100.00;98693.55;112606;1239;22745;-78
2023/11/14 01:41:18;;;;;;;10.50;7.50;;;;;;;8.10;100.00;98685.64;113041;1227;21974;-78
2023/11/14 01:44:38;;;;;;;8.10;7.30;;;;;;;8.12;100.00;98689.00;113375;1234;24360;-79
2023/11/14 01:47:53;;;;;;;;;;;;;;;;;;;;;
2023/11/14 01:51:16;;;;;;;8.70;7.80;;;;;;;8.16;100.00;98688.58;113366;1234;21973;-78
2023/11/14 01:54:25;;;;;;;8.60;7.70;;;;;;;8.20;100.00;98693.92;112594;1241;23758;-79
2023/11/14 01:57:57;;;;;;;10.00;7.00;;;;;;;8.28;100.00;98709.81;112916;1241;23005;-80
2023/11/14 02:01:00;;;;;;;8.30;7.20;;;;;;;8.31;100.00;98712.06;112660;1241;21945;-79
2023/11/14 02:04:20;;;;;;;;;;;;;;;;;;;;;
2023/11/14 02:07:26;;;;;;;8.70;7.60;;;;;;;8.35;100.00;98734.54;112742;1241;22966;-78
2023/11/14 02:10:54;;;;;;;8.20;6.60;;;;;;;8.38;100.00;98739.73;112352;1245;21998;-79
2023/11/14 02:13:49;;;;;;;;;;;;;;;;;;;;;
2023/11/14 02:17:20;;;;;;;8.50;6.80;;;;;;;8.40;100.00;98742.42;111605;1250;22019;-77
2023/11/14 02:20:14;;;;;;;7.40;6.60;;;;;;;8.42;100.00;98747.18;111479;1250;21970;-80
2023/11/14 02:23:06;;;;;;;7.70;6.30;;;;;;;8.45;100.00;98754.98;111529;1250;21962;-79
2023/11/14 02:26:11;;;;;;;7.50;6.40;;;;;;;8.49;100.00;98757.95;111452;1250;22114;-80
2023/11/14 02:29:51;;;;;;;7.80;7.00;;;;;;;8.49;100.00;98767.11;111183;1253;23620;-79
2023/11/14 02:33:33;;;;;;;;;;;;;;;;;;;;;
2023/11/14 02:36:37;;;;;;;6.00;5.20;;;;;;;8.51;100.00;98772.00;111615;1249;22132;-79
2023/11/14 02:39:19;;;;;;;8.00;5.80;;;;;;;8.56;100.00;98770.17;111016;1254;23056;-80
2023/11/14 02:42:18;;;;;;;;;;;;;;;;;;;;;
2023/11/14 02:45:17;;;;;;;7.20;5.50;;;;;;;8.63;100.00;98770.32;110877;1260;23048;-78
2023/11/14 02:48:19;;;;;;;6.90;4.70;;;;;;;8.65;100.00;98774.88;110536;1247;23902;-78
2023/11/14 02:51:22;;;;;;;8.50;5.50;;;;;;;8.69;100.00;98776.75;110983;1255;21967;-79
2023/11/14 02:54:12;;;;;;;7.90;5.30;;;;;;;8.73;100.00;98771.86;111024;1256;21991;-80
2023/11/14 02:57:36;;;;;;;;;;;;;;;;;;;;;
2023/11/14 03:01:07;;;;;;;;;;;;;;;;;;;;;
2023/11/14 03:03:55;;;;;;;11.00;5.70;;;;;;;8.76;100.00;98773.58;113173;1226;22998;-78
2023/11/14 03:06:52;;;;;;;7.40;5.30;;;;;;;8.78;100.00;98787.71;113088;1234;21946;-79
2023/11/14 03:09:57;;;;;;;7.70;5.50;;;;;;;8.80;100.00;98795.73;113370;1234;21946;-78
2023/11/14 03:13:22;;;;;;;9.40;5.60;;;;;;;8.81;100.00;98798.11;113419;1233;21954;-77
2023/11/14 03:16:52;;;;;;;;;;;;;;;;;;;;;
2023/11/14 03:19:34;;;;;;;9.50;5.30;;;;;;;8.86;100.00;98816.39;112909;1237;23692;-78
2023/11/14 03:22:48;;;;;;;;;;;;;;;;;;;;;
2023/11/14 03:29:30;;;;;;;8.50;5.50;;;;;;;8.89;100.00;98820.96;111844;1247;21994;-79
2023/11/14 03:32:28;;;;;;;;;;;;;;;;;;;;;
2023/11/14 03:38:55;;;;;;;8.20;4.80;;;;;;;8.95;100.00;98813.17;110454;1259;23053;-80
2023/11/14 03:41:37;;;;;;;9.00;5.10;;;;;;;9.04;100.00;98824.44;110721;1257;21995;-79
2023/11/14 03:45:02;;;;;;;8.30;4.10;;;;;;;9.07;100.00;98824.43;110670;1260;22664;-79
2023/11/14 03:48:03;;;;;;;7.70;5.10;;;;;;;9.12;100.00;98822.25;111100;1256;22435;-78
2023/11/14 03:51:30;;;;;;;8.90;3.90;;;;;;;9.15;100.00;98818.41;111090;1252;22719;-80
2023/11/14 03:55:03;;;;;;;10.40;4.90;;;;;;;9.18;100.00;98817.20;111540;1252;21988;-79
2023/11/14 03:58:23;;;;;;;;;;;;;;;;;;;;;
2023/11/14 04:01:46;;;;;;;9.80;4.80;;;;;;;9.25;100.00;98815.98;110902;1256;23833;-79
2023/11/14 04:04:40;;;;;;;11.80;5.00;;;;;;;9.27;100.00;98818.64;111766;1252;23743;-78
2023/11/14 04:07:45;;;;;;;11.30;4.60;;;;;;;9.28;100.00;98821.56;110540;1261;21996;-79
2023/11/14 04:11:29;;;;;;;13.60;4.60;;;;;;;9.29;100.00;98829.32;110808;1261;22000;-79
2023/11/14 04:14:24;;;;;;;11.40;5.10;;;;;;;9.28;100.00;98828.82;110740;1261;22014;-80
2023/11/14 04:17:19;;;;;;;11.00;4.60;;;;;;;9.32;100.00;98832.77;110952;1256;22222;-79
2023/11/14 04:20:10;;;;;;;11.00;4.20;;;;;;;9.33;100.00;98835.33;110834;1255;21963;-78
2023/11/14 04:23:38;;;;;;;12.40;4.40;;;;;;;9.34;100.00;98847.23;111395;1255;21957;-78
2023/11/14 04:26:51;;;;;;;13.80;4.20;;;;;;;9.36;100.00;98850.80;111374;1251;22181;-79
2023/11/14 04:30:20;;;;;;;10.90;4.30;;;;;;;9.37;100.00;98848.77;111635;1247;23587;-79
2023/11/14 04:33:05;;;;;;;10.00;4.60;;;;;;;9.42;100.00;98853.93;112615;1241;21978;-80
2023/11/14 04:36:19;;;;;;;10.00;3.90;;;;;;;9.45;100.00;98857.56;112583;1241;21957;-79
2023/11/14 04:39:24;;;;;;;9.20;3.90;;;;;;;9.45;100.00;98863.63;112444;1241;22202;-78
2023/11/14 04:42:14;;;;;;;9.20;4.00;;;;;;;9.49;100.00;98868.27;112573;1241;22975;-79
2023/11/14 04:45:18;;;;;;;8.40;3.10;;;;;;;9.51;100.00;98867.98;112499;1241;21966;-79
2023/11/14 04:48:00;;;;;;;6.30;3.00;;;;;;;9.54;100.00;98870.25;112408;1241;23591;-80
2023/11/14 04:50:43;;;;;;;12.30;4.10;;;;;;;9.55;100.00;98875.91;112810;1241;21953;-77
2023/11/14 04:53:53;;;;;;;18.20;10.80;;;;;;;9.56;100.00;98873.05;112369;1241;21945;-80
2023/11/14 04:57:50;;;;;;;14.80;4.80;;;;;;;9.58;100.00;98878.19;112004;1246;21969;-82
2023/11/14 05:00:24;;;;;;;10.90;4.20;;;;;;;9.60;100.00;98878.59;112120;1246;21991;-78
2023/11/14 05:03:09;;;;;;;10.70;3.40;;;;;;;9.62;100.00;98883.30;111648;1246;22087;-78
2023/11/14 05:06:21;;;;;;;13.10;4.10;;;;;;;9.65;100.00;98888.70;111582;1247;21954;-78
2023/11/14 05:09:29;;;;;;;;;;;;;;;;;;;;;
2023/11/14 05:12:42;;;;;;;9.60;3.60;;;;;;;9.64;100.00;98897.27;111530;1249;23716;-77
2023/11/14 05:15:17;;;;;;;9.50;3.60;;;;;;;9.67;100.00;98895.36;111705;1247;21932;-79
2023/11/14 05:18:12;;;;;;;8.90;3.60;;;;;;;9.68;100.00;98893.41;112240;1243;21964;-78
2023/11/14 05:21:08;;;;;;;12.50;5.10;;;;;;;9.70;100.00;98897.45;112336;1243;23729;-80
2023/11/14 05:23:54;;;;;;;9.70;4.00;;;;;;;9.69;100.00;98894.02;112216;1243;21987;-79
2023/11/14 05:26:54;;;;;;;10.40;3.20;;;;;;;9.70;100.00;98891.20;112542;1241;23691;-80
2023/11/14 05:29:25;;;;;;;10.70;4.40;;;;;;;9.68;100.00;98892.88;112533;1241;21965;-78
2023/11/14 05:32:26;;;;;;;11.10;4.10;;;;;;;9.67;100.00;98897.29;112455;1241;23059;-78
2023/11/14 05:35:27;;;;;;;10.10;4.20;;;;;;;9.68;100.00;98900.71;112883;1240;21982;-80
2023/11/14 05:38:26;;;;;;;8.50;3.40;;;;;;;9.67;100.00;98906.33;111970;1238;23293;-81
2023/11/14 05:41:06;;;;;;;11.90;3.90;;;;;;;9.67;100.00;98911.67;111935;1247;23009;-79
2023/11/14 05:44:07;;;;;;;9.00;3.40;;;;;;;9.68;100.00;98916.13;111899;1247;24241;-80
2023/11/14 05:47:07;;;;;;;10.90;4.20;;;;;;;9.69;100.00;98923.40;111844;1247;24388;-80
2023/11/14 05:49:56;;;;;;;11.50;4.10;;;;;;;9.72;100.00;98928.09;112082;1248;22007;-80
2023/11/14 05:53:02;;;;;;;11.90;4.60;;;;;;;9.74;100.00;98926.94;112074;1242;23815;-80
2023/11/14 05:55:41;;;;;;;12.30;5.50;;;;;;;9.78;100.00;98929.66;112640;1235;23675;-81
2023/11/14 05:58:15;;;;;;;16.90;7.10;;;;;;;9.81;100.00;98930.21;112972;1239;21961;-79
2023/11/14 06:00:46;;;;;;;11.80;5.20;;;;;;;9.85;100.00;98927.86;112483;1245;23610;-79
2023/11/14 06:03:25;;;;;;;13.10;5.50;;;;;;;9.88;100.00;98929.62;112155;1245;22627;-81
2023/11/14 06:06:44;;;;;;;14.60;5.20;;;;;;;9.89;100.00;98936.31;111898;1245;22015;-80
2023/11/14 06:09:21;;;;;;;14.90;6.10;;;;;;;9.89;100.00;98939.64;112278;1245;22022;-80
2023/11/14 06:11:56;;;;;;;14.80;6.40;;;;;;;9.91;100.00;98940.38;111935;1244;24040;-77
2023/11/14 06:15:14;;;;;;;56.80;46.00;;;;;;;9.92;100.00;98942.56;111417;1251;21983;-79
2023/11/14 06:18:19;;;;;;;;;;;;;;;9.93;100.00;98943.38;111827;1241;23110;-81
2023/11/14 06:21:33;;;;;;;19.50;6.20;;;;;;;9.86;100.00;98944.15;112641;1241;22178;-81
2023/11/14 06:27:39;;;;;;;13.80;6.50;;;;;;;9.90;100.00;98953.63;112282;1246;21968;-80
2023/11/14 06:30:39;;;;;;;16.10;6.70;;;;;;;9.94;100.00;98953.94;111553;1250;22014;-79
2023/11/14 06:34:40;;;;;;;;;;;;;;;;;;;;;
2023/11/14 06:37:45;;;;;;;15.70;7.40;;;;;;;9.94;100.00;98958.96;111680;1251;22022;-78
2023/11/14 06:41:05;;;;;;;16.40;5.90;;;;;;;9.95;100.00;98958.76;111550;1251;21970;-80
2023/11/14 06:44:42;;;;;;;13.20;5.70;;;;;;;9.96;100.00;98959.55;112086;1247;22952;-80
2023/11/14 06:47:51;;;;;;;12.50;4.70;;;;;;;9.98;100.00;98961.02;111294;1250;23024;-79
2023/11/14 06:50:46;;;;;;;;;;;;;;;;;;;;;
2023/11/14 06:54:06;;;;;;;18.60;5.90;;;;;;;10.01;100.00;98970.58;111163;1256;23029;-79
2023/11/14 06:57:18;;;;;;;13.00;5.70;;;;;;;10.03;100.00;98974.78;111045;1256;22351;-80
2023/11/14 07:00:26;;;;;;;15.60;4.80;;;;;;;10.04;100.00;98972.69;111076;1256;23042;-77
2023/11/14 07:03:37;;;;;;;;;;;;;;;;;;;;;
2023/11/14 07:06:42;;;;;;;11.80;4.90;;;;;;;9.99;100.00;98971.90;111751;1251;23794;-80
2023/11/14 07:09:52;;;;;;;12.40;4.70;;;;;;;9.98;100.00;98970.05;111617;1250;21983;-80
2023/11/14 07:12:32;;;;;;;15.20;4.30;;;;;;;10.00;100.00;98974.78;111733;1247;21944;-81
2023/11/14 07:15:18;;;;;;;11.70;4.80;;;;;;;10.00;100.00;98966.09;112002;1240;21923;-80
2023/11/14 07:18:15;;;;;;;11.40;4.20;;;;;;;10.13;100.00;98974.42;111747;1249;23057;-80
2023/11/14 07:21:18;;;;;;;9.80;4.10;;;;;;;10.22;100.00;98979.29;111763;1249;22412;-80
2023/11/14 07:24:05;;;;;;;11.50;4.70;;;;;;;10.28;100.00;98981.73;111469;1249;23797;-80
2023/11/14 07:26:49;;;;;;;10.70;4.30;;;;;;;10.31;100.00;98981.35;111504;1249;24456;-84
2023/11/14 07:29:28;;;;;;;18.40;5.00;;;;;;;10.37;100.00;98972.70;111289;1249;22793;-78
2023/11/14 07:32:11;;;;;;;11.70;6.10;;;;;;;10.48;100.00;98975.36;111526;1249;21964;-78
2023/11/14 07:34:43;;;;;;;17.50;5.50;;;;;;;10.62;100.00;98978.86;112256;1238;21960;-78
2023/11/14 07:37:19;;;;;;;12.10;5.00;;;;;;;10.76;100.00;98981.20;112674;1238;21949;-77
2023/11/14 07:39:52;;;;;;;12.80;5.60;;;;;;;10.84;100.00;98982.98;112279;1242;21959;-76
2023/11/14 07:42:34;;;;;;;10.50;4.50;;;;;;;10.86;100.00;98986.82;112257;1242;22726;-76
2023/11/14 07:45:10;;;;;;;14.00;6.70;;;;;;;10.88;100.00;98985.32;112596;1242;21971;-79
2023/11/14 07:47:41;;;;;;;15.40;5.90;;;;;;;10.90;100.00;98981.55;112566;1242;22044;-78
2023/11/14 07:50:28;;;;;;;15.50;6.20;;;;;;;10.93;100.00;98986.59;112524;1239;21948;-76
2023/11/14 07:53:03;;;;;;;16.60;5.70;;;;;;;10.91;100.00;98994.89;112473;1239;21946;-76
2023/11/14 07:55:33;;;;;;;18.30;5.70;;;;;;;10.90;100.00;98989.73;112230;1244;21954;-77
2023/11/14 07:58:04;;;;;;;16.30;6.40;;;;;;;10.89;100.00;98989.05;112578;1241;21948;-77
2023/11/14 08:00:35;;;;;;;16.50;5.90;;;;;;;10.89;100.00;98986.45;112752;1241;22163;-78
2023/11/14 08:03:10;;;;;;;15.50;7.00;;;;;;;10.90;100.00;98989.34;111879;1247;22045;-77
2023/11/14 08:05:52;;;;;;;15.00;7.10;;;;;;;10.93;100.00;98999.23;111929;1247;23693;-76
2023/11/14 08:08:32;;;;;;;15.50;7.40;;;;;;;10.90;100.00;98999.12;111938;1247;22732;-77
2023/11/14 08:11:02;;;;;;;17.10;5.50;;;;;;;10.89;100.00;98993.95;111525;1249;23728;-76
2023/11/14 08:13:32;;;;;;;11.60;4.90;;;;;;;10.86;100.00;98993.95;111114;1250;22124;-78
2023/11/14 08:16:00;;;;;;;14.80;5.60;;;;;;;10.86;100.00;99000.89;111295;1251;23680;-76
2023/11/14 08:18:28;;;;;;;70.70;52.90;;;;;;;10.88;100.00;99000.61;111518;1250;21934;-77
2023/11/14 08:20:56;;;;;;;18.70;7.90;;;;;;;10.89;100.00;98998.63;111500;1246;22405;-76
2023/11/14 08:23:28;;;;;;;14.90;6.30;;;;;;;10.90;100.00;98998.20;111846;1246;22045;-77
2023/11/14 08:25:58;;;;;;;12.80;6.00;;;;;;;10.94;100.00;98996.08;111879;1246;21979;-76
2023/11/14 08:28:29;;;;;;;12.80;5.60;;;;;;;10.98;100.00;98996.89;111970;1239;24280;-76
2023/11/14 08:31:06;;;;;;;16.90;7.40;;;;;;;11.05;100.00;98993.84;112595;1239;23089;-77
2023/11/14 08:33:39;;;;;;;14.60;6.20;;;;;;;11.11;100.00;98989.81;110007;1239;3626114;-76
2023/11/14 08:36:20;;;;;;;19.70;6.90;;;;;;;11.19;100.00;98991.63;112655;1239;21942;-76
2023/11/14 08:38:56;;;;;;;15.40;7.30;;;;;;;11.27;100.00;98994.41;113012;1234;22088;-76
2023/11/14 08:41:28;;;;;;;17.00;7.50;;;;;;;11.46;100.00;98990.78;112692;1240;22005;-76
2023/11/14 08:44:04;;;;;;;14.00;8.10;;;;;;;11.64;100.00;98991.58;112819;1240;23085;-76
2023/11/14 08:46:39;;;;;;;14.60;6.10;;;;;;;11.70;100.00;98990.97;112647;1239;21961;-77
2023/11/14 08:49:21;;;;;;;22.60;8.70;;;;;;;11.72;100.00;98990.89;112703;1239;23876;-79
2023/11/14 08:51:53;;;;;;;18.70;7.60;;;;;;;11.71;100.00;98984.48;112917;1240;22461;-77
2023/11/14 08:54:27;;;;;;;12.80;6.10;;;;;;;11.73;100.00;98984.69;112716;1239;23675;-77
2023/11/14 08:56:57;;;;;;;13.80;5.90;;;;;;;11.73;100.00;98986.66;112715;1239;21949;-80
2023/11/14 08:59:33;;;;;;;15.30;5.90;;;;;;;11.77;100.00;98982.72;112907;1235;23931;-77
2023/11/14 09:02:03;;;;;;;16.10;6.00;;;;;;;11.82;100.00;98982.41;113160;1234;22158;-78
2023/11/14 09:04:37;;;;;;;17.20;6.90;;;;;;;11.83;100.00;98982.84;113340;1234;21951;-78
2023/11/14 09:07:10;;;;;;;19.50;7.90;;;;;;;11.84;100.00;98992.70;113220;1235;22455;-80
2023/11/14 09:09:48;;;;;;;17.40;5.70;;;;;;;11.88;100.00;99001.88;113197;1235;21943;-79
2023/11/14 09:12:39;;;;;;;19.30;6.50;;;;;;;11.93;100.00;98995.12;112452;1240;23762;-79
2023/11/14 09:15:29;;;;;;;10.10;4.70;;;;;;;12.07;100.00;98998.39;112451;1243;23662;-79
2023/11/14 09:17:58;;;;;;;14.20;5.10;;;;;;;12.28;100.00;99013.27;112396;1243;21946;-78
2023/11/14 09:20:30;;;;;;;13.30;6.00;;;;;;;12.43;100.00;99007.16;112240;1243;22047;-78
2023/11/14 09:23:02;;;;;;;15.90;6.40;;;;;;;12.71;100.00;99008.45;111782;1249;22727;-79
2023/11/14 09:25:40;;;;;;;18.80;6.40;;;;;;;13.04;100.00;99009.91;111813;1249;21954;-78
2023/11/14 09:28:17;;;;;;;16.50;5.70;;;;;;;13.29;100.00;99007.83;112027;1249;22025;-79
2023/11/14 09:30:49;;;;;;;18.70;6.70;;;;;;;13.37;100.00;99009.70;112034;1245;22006;-79
2023/11/14 09:33:22;;;;;;;15.00;6.00;;;;;;;13.41;100.00;99008.73;111950;1244;21973;-81
2023/11/14 09:35:53;;;;;;;17.30;5.50;;;;;;;13.44;100.00;99007.84;112174;1244;23681;-79
2023/11/14 09:38:38;;;;;;;;;;;;;;;;;;;;;
2023/11/14 09:41:12;;;;;;;13.50;5.70;;;;;;;13.41;100.00;99013.79;111705;1249;23513;-80
2023/11/14 09:43:54;;;;;;;14.00;5.80;;;;;;;13.45;100.00;99010.58;111662;1249;21927;-80
2023/11/14 09:46:34;;;;;;;14.30;5.00;;;;;;;13.44;100.00;99008.48;111713;1249;23590;-79
2023/11/14 09:49:08;;;;;;;17.50;6.30;;;;;;;13.37;100.00;98999.06;111728;1249;23018;-80
2023/11/14 09:51:45;;;;;;;24.50;11.60;;;;;;;13.26;100.00;98998.58;111590;1244;22988;-80
2023/11/14 09:54:19;;;;;;;13.70;6.80;;;;;;;13.24;100.00;98992.58;112438;1244;21974;-78
2023/11/14 09:56:50;;;;;;;16.10;6.20;;;;;;;13.24;100.00;98988.58;112560;1239;21970;-79
2023/11/14 09:59:27;;;;;;;16.70;7.60;;;;;;;13.25;100.00;98986.10;113048;1234;22946;-78
2023/11/14 10:02:03;;;;;;;18.20;7.20;;;;;;;13.23;100.00;98988.79;113362;1234;21961;-78
2023/11/14 10:04:32;;;;;;;20.80;9.00;;;;;;;13.17;100.00;98988.35;112874;1240;21993;-78
2023/11/14 10:07:09;;;;;;;23.40;8.10;;;;;;;13.14;100.00;98994.16;112835;1240;24341;-76
2023/11/14 10:09:43;;;;;;;14.40;5.70;;;;;;;13.08;100.00;98996.02;112530;1240;21933;-78
2023/11/14 10:12:36;;;;;;;17.50;6.50;;;;;;;13.00;100.00;98996.71;112790;1240;21945;-77
2023/11/14 10:15:08;;;;;;;14.70;6.50;;;;;;;12.95;100.00;98993.78;112322;1243;21944;-78
2023/11/14 10:17:47;;;;;;;11.60;5.30;;;;;;;12.87;100.00;98994.30;112255;1245;21956;-76
2023/11/14 10:20:19;;;;;;;15.30;6.60;;;;;;;12.78;100.00;98993.87;112276;1245;24002;-77
2023/11/14 10:23:14;;;;;;;15.30;5.00;;;;;;;12.70;100.00;98992.09;112480;1240;21940;-76
2023/11/14 10:26:11;;;;;;;14.30;5.10;;;;;;;12.63;100.00;98985.81;112893;1240;22811;-76
2023/11/14 10:29:02;;;;;;;11.90;4.60;;;;;;;12.58;100.00;98988.27;112905;1240;21952;-77
2023/11/14 10:31:50;;;;;;;;;;;;;;;;;;;;;
2023/11/14 10:34:33;;;;;;;12.70;5.50;;;;;;;12.54;100.00;98976.48;113301;1234;23659;-78
2023/11/14 10:37:05;;;;;;;16.90;5.80;;;;;;;12.53;100.00;98981.58;112764;1239;22771;-77
2023/11/14 10:39:54;;;;;;;15.90;5.60;;;;;;;12.53;100.00;98981.44;113124;1239;22161;-74
2023/11/14 10:42:26;;;;;;;18.80;6.70;;;;;;;12.50;100.00;98979.88;112970;1239;21959;-75
2023/11/14 10:45:07;;;;;;;29.80;15.30;;;;;;;12.48;100.00;98978.80;112969;1239;21950;-76
2023/11/14 10:47:46;;;;;;;18.80;6.50;;;;;;;12.48;100.00;98974.27;112541;1242;21957;-77
2023/11/14 10:50:31;;;;;;;14.70;6.00;;;;;;;12.43;100.00;98964.29;112708;1242;21964;-76
2023/11/14 10:53:04;;;;;;;16.80;6.20;;;;;;;12.50;100.00;98973.95;112451;1242;21970;-76
2023/11/14 10:55:40;;;;;;;16.50;6.30;;;;;;;12.56;100.00;98974.06;112793;1238;21954;-76
2023/11/14 10:58:14;;;;;;;18.20;6.30;;;;;;;12.62;100.00;98970.14;112775;1238;23512;-77
2023/11/14 11:00:48;;;;;;;18.40;6.10;;;;;;;12.66;100.00;98957.86;113191;1238;23616;-76
2023/11/14 11:03:23;;;;;;;20.30;6.80;;;;;;;12.73;100.00;98965.93;113152;1238;22632;-77
2023/11/14 11:05:57;;;;;;;17.80;5.90;;;;;;;12.71;100.00;98962.88;112671;1238;22433;-77
2023/11/14 11:08:30;;;;;;;13.20;5.30;;;;;;;12.73;100.00;98964.33;112303;1243;21982;-76
2023/11/14 11:11:03;;;;;;;14.70;5.30;;;;;;;12.75;100.00;98964.19;112459;1243;23006;-76
2023/11/14 11:13:32;;;;;;;15.30;4.90;;;;;;;12.78;100.00;98965.92;112374;1243;22015;-75
2023/11/14 11:16:07;;;;;;;15.50;5.70;;;;;;;12.79;100.00;98967.46;112668;1243;21980;-76
2023/11/14 11:18:51;;;;;;;14.90;5.80;;;;;;;12.82;100.00;98964.63;112359;1243;21965;-78
2023/11/14 11:21:21;;;;;;;19.50;10.00;;;;;;;12.83;100.00;98971.20;112111;1243;23122;-78
2023/11/14 11:24:12;;;;;;;14.50;5.50;;;;;;;12.84;100.00;98971.77;112289;1238;21958;-77
2023/11/14 11:27:05;;;;;;;12.10;5.20;;;;;;;12.88;100.00;98962.13;113171;1234;23005;-77
2023/11/14 11:30:08;;;;;;;14.40;5.50;;;;;;;12.87;100.00;98957.44;113642;1233;23058;-76
2023/11/14 11:32:40;;;;;;;13.50;5.00;;;;;;;12.86;100.00;98956.98;112322;1245;22450;-76
2023/11/14 11:35:24;;;;;;;20.90;7.20;;;;;;;12.86;100.00;98953.50;112219;1245;22987;-79
2023/11/14 11:38:07;;;;;;;14.80;6.40;;;;;;;12.85;100.00;98951.66;112377;1245;22004;-80
2023/11/14 11:41:11;;;;;;;12.20;5.20;;;;;;;12.83;100.00;98951.09;112373;1245;21945;-77
2023/11/14 11:44:15;;;;;;;13.40;6.10;;;;;;;12.82;100.00;98945.94;111959;1245;21959;-77
2023/11/14 11:46:52;;;;;;;17.80;8.80;;;;;;;12.82;100.00;98942.39;111904;1245;23596;-78
2023/11/14 11:49:37;;;;;;;14.50;7.00;;;;;;;12.86;100.00;98944.77;111342;1251;21963;-76
2023/11/14 11:52:13;;;;;;;14.10;6.00;;;;;;;12.90;100.00;98941.89;111916;1246;22990;-77
2023/11/14 11:54:48;;;;;;;41.20;28.90;;;;;;;12.95;100.00;98943.27;111890;1246;21961;-77
2023/11/14 11:57:32;;;;;;;17.70;8.60;;;;;;;12.96;100.00;98941.64;111859;1246;21936;-77
2023/11/14 12:00:01;;;;;;;14.80;6.10;;;;;;;12.96;100.00;98938.69;111969;1246;23634;-75
2023/11/14 12:02:40;;;;;;;16.40;5.20;;;;;;;12.95;100.00;98938.23;112156;1246;23694;-79
2023/11/14 12:05:10;;;;;;;13.80;5.90;;;;;;;12.95;100.00;98936.16;112269;1246;21997;-78
2023/11/14 12:07:49;;;;;;;17.30;5.20;;;;;;;12.96;100.00;98934.14;111257;1253;22016;-77
2023/11/14 12:10:21;;;;;;;10.40;5.00;;;;;;;12.98;100.00;98926.67;111643;1248;21956;-77
2023/11/14 12:12:58;;;;;;;15.10;6.80;;;;;;;13.01;100.00;98927.14;111883;1246;23691;-77
2023/11/14 12:15:32;;;;;;;16.40;6.70;;;;;;;13.04;100.00;98927.47;112327;1241;22813;-76
2023/11/14 12:18:05;;;;;;;18.50;6.60;;;;;;;13.05;100.00;98926.88;112859;1241;22061;-78
2023/11/14 12:20:41;;;;;;;24.40;9.50;;;;;;;13.07;100.00;98929.87;112008;1246;22800;-77
2023/11/14 12:23:13;;;;;;;19.60;6.60;;;;;;;13.11;100.00;98934.15;111910;1246;22846;-76
2023/11/14 12:25:42;;;;;;;17.20;7.20;;;;;;;13.14;100.00;98937.59;112062;1241;23052;-77
2023/11/14 12:28:19;;;;;;;13.20;5.30;;;;;;;13.19;100.00;98935.16;112752;1241;21993;-77
2023/11/14 12:31:07;;;;;;;15.30;5.40;;;;;;;13.20;100.00;98933.63;112632;1241;24275;-77
2023/11/14 12:33:53;;;;;;;14.80;6.50;;;;;;;13.21;100.00;98936.02;112613;1241;21950;-76
2023/11/14 12:36:27;;;;;;;14.90;5.50;;;;;;;13.20;100.00;98938.20;112204;1244;22026;-75
2023/11/14 12:39:16;;;;;;;14.20;6.30;;;;;;;13.20;100.00;98938.52;111929;1241;23635;-77
2023/11/14 12:41:58;;;;;;;12.20;6.30;;;;;;;13.20;100.00;98943.63;112389;1241;22058;-78
2023/11/14 12:44:34;;;;;;;13.70;6.30;;;;;;;13.18;100.00;98949.00;112623;1241;22416;-78
2023/11/14 12:47:08;;;;;;;12.30;4.80;;;;;;;13.19;100.00;98951.41;112635;1241;21954;-78
2023/11/14 12:49:52;;;;;;;14.30;6.50;;;;;;;13.18;100.00;98950.27;111970;1245;21977;-76
2023/11/14 12:52:32;;;;;;;21.10;9.90;;;;;;;13.24;100.00;98957.83;111283;1250;21967;-77
2023/11/14 12:55:05;;;;;;;14.80;6.50;;;;;;;13.21;100.00;98955.59;111912;1245;22950;-76
2023/11/14 12:57:38;;;;;;;16.60;9.40;;;;;;;13.18;100.00;98947.61;111524;1251;21963;-77
2023/11/14 13:00:15;;;;;;;17.10;7.00;;;;;;;13.16;100.00;98945.33;111586;1251;21986;-76
2023/11/14 13:02:51;;;;;;;15.60;7.30;;;;;;;13.13;100.00;98946.05;111672;1251;22063;-77
2023/11/14 13:05:24;;;;;;;18.30;8.50;;;;;;;13.10;100.00;98946.61;111659;1251;23034;-77
2023/11/14 13:07:58;;;;;;;21.40;8.70;;;;;;;13.07;100.00;98944.33;111427;1247;21996;-78
2023/11/14 13:10:30;;;;;;;16.40;7.10;;;;;;;13.05;100.00;98942.23;111545;1246;21966;-77
2023/11/14 13:13:03;;;;;;;19.00;6.70;;;;;;;13.02;100.00;98938.98;111293;1253;22107;-77
2023/11/14 13:15:35;;;;;;;19.80;9.00;;;;;;;12.98;100.00;98936.45;111356;1246;21936;-77
2023/11/14 13:18:18;;;;;;;21.40;9.10;;;;;;;12.95;100.00;98935.77;112208;1246;21977;-77
2023/11/14 13:20:49;;;;;;;18.20;8.00;;;;;;;12.93;100.00;98932.94;111909;1246;22227;-76
2023/11/14 13:23:19;;;;;;;19.50;9.10;;;;;;;12.92;100.00;98916.09;111984;1246;23613;-77
2023/11/14 13:26:06;;;;;;;16.50;7.20;;;;;;;12.93;100.00;98920.17;112085;1246;22187;-77
2023/11/14 13:28:54;;;;;;;23.80;11.80;;;;;;;12.90;100.00;98922.84;112367;1246;22012;-76
2023/11/14 13:31:30;;;;;;;17.40;6.90;;;;;;;12.88;100.00;98924.04;111999;1243;23677;-77
2023/11/14 13:34:11;;;;;;;12.40;7.20;;;;;;;12.86;100.00;98916.65;112165;1243;21953;-76
2023/11/14 13:36:50;;;;;;;20.00;8.70;;;;;;;12.85;100.00;98913.05;113008;1239;21953;-77
2023/11/14 13:39:26;;;;;;;25.80;11.00;;;;;;;12.84;100.00;98911.73;112697;1239;21978;-77